createdAt,value
2019-05-10T00:01:42.650Z,12.93
2019-05-10T00:07:03.220Z,12.94
2019-05-10T00:12:05.684Z,12.90
2019-05-10T00:17:08.169Z,12.90
2019-05-10T00:22:10.625Z,12.90
2019-05-10T00:27:13.082Z,12.84
2019-05-10T00:32:15.547Z,12.83
2019-05-10T00:37:18.004Z,12.83
2019-05-10T00:42:20.470Z,12.85
2019-05-10T00:47:22.944Z,12.82
2019-05-10T00:52:25.435Z,12.83
2019-05-10T00:57:27.899Z,12.80
2019-05-10T01:02:30.358Z,12.82
2019-05-10T01:07:32.815Z,12.89
2019-05-10T01:12:35.260Z,12.87
2019-05-10T01:17:37.708Z,12.89
2019-05-10T01:22:40.169Z,12.86
2019-05-10T01:27:42.620Z,12.80
2019-05-10T01:32:45.064Z,12.80
2019-05-10T01:37:47.521Z,12.75
2019-05-10T01:42:49.963Z,12.80
2019-05-10T01:47:52.412Z,12.83
2019-05-10T01:52:54.855Z,12.76
2019-05-10T01:57:57.308Z,12.71
2019-05-10T02:02:59.764Z,12.74
2019-05-10T02:08:02.217Z,12.67
2019-05-10T02:13:04.649Z,12.68
2019-05-10T02:18:07.102Z,12.65
2019-05-10T02:23:09.562Z,12.66
2019-05-10T02:28:12.016Z,12.60
2019-05-10T02:33:14.473Z,12.62
2019-05-10T02:38:16.955Z,12.57
2019-05-10T02:43:19.393Z,12.56
2019-05-10T02:48:21.872Z,12.53
2019-05-10T02:53:24.333Z,12.41
2019-05-10T02:58:26.759Z,12.35
2019-05-10T03:03:29.217Z,12.38
2019-05-10T03:08:46.697Z,12.24
2019-05-10T03:13:49.146Z,12.30
2019-05-10T03:18:51.577Z,12.33
2019-05-10T03:23:54.123Z,12.19
2019-05-10T03:28:56.572Z,11.90
2019-05-10T03:33:59.020Z,12.04
2019-05-10T03:39:01.462Z,12.07
2019-05-10T03:44:03.930Z,11.75
2019-05-10T03:49:06.381Z,11.57
2019-05-10T03:54:08.832Z,11.40
2019-05-10T03:59:11.276Z,11.37
2019-05-10T04:04:13.749Z,11.53
2019-05-10T04:09:16.200Z,11.56
2019-05-10T04:14:18.654Z,11.62
2019-05-10T04:19:21.100Z,11.68
2019-05-10T04:24:23.546Z,11.64
2019-05-10T04:29:25.996Z,11.68
2019-05-10T04:34:28.446Z,11.56
2019-05-10T04:39:31.007Z,11.40
2019-05-10T04:44:33.454Z,11.34
2019-05-10T04:49:35.906Z,11.38
2019-05-10T04:54:38.353Z,11.54
2019-05-10T04:59:40.806Z,11.79
2019-05-10T05:04:43.249Z,12.76
2019-05-10T05:09:45.701Z,13.24
2019-05-10T05:14:48.150Z,13.59
2019-05-10T05:19:50.599Z,13.88
2019-05-10T05:24:55.083Z,13.84
2019-05-10T05:29:55.518Z,14.03
2019-05-10T05:34:57.962Z,14.32
2019-05-10T05:40:00.425Z,14.99
2019-05-10T05:45:02.906Z,14.71
2019-05-10T05:50:05.341Z,14.86
2019-05-10T05:55:07.793Z,15.12
2019-05-10T06:00:10.242Z,15.79
2019-05-10T06:05:12.743Z,16.71
2019-05-10T06:10:17.835Z,16.78
2019-05-10T06:15:17.596Z,17.90
2019-05-10T06:20:20.054Z,18.10
2019-05-10T06:25:37.902Z,17.75
2019-05-10T06:30:24.973Z,17.29
2019-05-10T06:35:27.442Z,17.95
2019-05-10T06:40:34.784Z,18.24
2019-05-10T06:45:32.356Z,17.69
2019-05-10T06:50:34.807Z,17.76
2019-05-10T06:55:37.268Z,18.26
2019-05-10T07:00:44.822Z,19.16
2019-05-10T07:05:42.195Z,18.80
2019-05-10T07:10:44.634Z,20.99
2019-05-10T07:15:47.080Z,21.17
2019-05-10T07:20:49.547Z,20.58
2019-05-10T07:25:52.009Z,19.76
2019-05-10T07:30:54.471Z,18.69
2019-05-10T07:35:56.917Z,18.19
2019-05-10T07:40:59.370Z,18.36
2019-05-10T07:46:06.483Z,18.41
2019-05-10T07:51:04.306Z,18.39
2019-05-10T07:56:08.016Z,18.46
2019-05-10T08:01:09.217Z,18.09
2019-05-10T08:06:15.079Z,17.54
2019-05-10T08:11:14.126Z,17.27
2019-05-10T08:16:21.828Z,17.71
2019-05-10T08:21:23.901Z,19.18
2019-05-10T08:26:24.616Z,19.31
2019-05-10T08:31:26.233Z,20.61
2019-05-10T08:36:26.468Z,20.47
2019-05-10T08:41:28.920Z,33.76
2019-05-10T08:46:40.188Z,29.92
2019-05-10T08:51:34.534Z,26.80
2019-05-10T08:56:36.302Z,35.97
2019-05-10T09:01:46.554Z,37.03
2019-05-10T09:06:42.036Z,43.60
2019-05-10T09:11:44.479Z,45.41
2019-05-10T09:16:56.282Z,53.27
2019-05-10T09:21:50.234Z,44.01
2019-05-10T09:26:52.774Z,32.23
2019-05-10T09:31:53.615Z,28.04
2019-05-10T09:36:56.066Z,27.90
2019-05-10T09:41:58.513Z,28.98
2019-05-10T09:47:01.963Z,30.89
2019-05-10T09:52:04.631Z,44.96
2019-05-10T09:57:08.191Z,54.59
2019-05-10T10:02:14.292Z,54.79
2019-05-10T10:07:10.830Z,34.00
2019-05-10T10:12:13.277Z,29.94
2019-05-10T10:17:18.390Z,27.59
2019-05-10T10:22:19.841Z,26.11
2019-05-10T10:27:20.676Z,24.03
2019-05-10T10:32:24.618Z,25.37
2019-05-10T10:37:28.997Z,26.44
2019-05-10T10:42:28.050Z,26.88
2019-05-10T10:47:32.269Z,29.17
2019-05-10T10:52:33.028Z,24.94
2019-05-10T10:57:37.391Z,22.76
2019-05-10T11:02:41.290Z,20.97
2019-05-10T11:07:44.309Z,19.85
2019-05-10T11:12:42.865Z,20.70
2019-05-10T11:17:50.468Z,20.20
2019-05-10T11:22:53.359Z,20.33
2019-05-10T11:27:58.370Z,19.81
2019-05-10T11:32:55.417Z,18.94
2019-05-10T11:37:57.892Z,17.96
2019-05-10T11:43:01.511Z,17.22
2019-05-10T11:48:02.870Z,17.02
2019-05-10T11:53:06.835Z,17.43
2019-05-10T11:58:10.018Z,17.95
2019-05-10T12:03:15.453Z,21.01
2019-05-10T12:08:13.281Z,23.20
2019-05-10T12:13:19.758Z,31.21
2019-05-10T12:18:26.344Z,41.31
2019-05-10T12:23:29.979Z,42.52
2019-05-10T12:28:28.493Z,44.18
2019-05-10T12:33:27.664Z,40.60
2019-05-10T12:38:29.679Z,42.06
2019-05-10T12:43:30.981Z,44.81
2019-05-10T12:48:35.415Z,43.39
2019-05-10T12:53:36.709Z,33.82
2019-05-10T12:58:37.711Z,29.90
2019-05-10T13:03:40.175Z,27.47
2019-05-10T13:08:42.643Z,25.59
2019-05-10T13:13:45.275Z,23.59
2019-05-10T13:18:51.766Z,22.70
2019-05-10T13:23:53.225Z,21.84
2019-05-10T13:28:52.636Z,21.13
2019-05-10T13:33:55.248Z,20.65
2019-05-10T13:38:57.714Z,20.62
2019-05-10T13:44:05.008Z,22.93
2019-05-10T13:49:02.647Z,23.48
2019-05-10T13:54:05.526Z,22.39
2019-05-10T13:59:15.364Z,22.91
2019-05-10T14:04:10.063Z,21.24
2019-05-10T14:09:12.521Z,21.21
2019-05-10T14:14:20.392Z,22.21
2019-05-10T14:19:22.993Z,22.04
2019-05-10T14:24:19.927Z,21.26
2019-05-10T14:29:32.955Z,20.83
2019-05-10T14:34:24.899Z,20.33
2019-05-10T14:39:27.360Z,19.86
2019-05-10T14:44:29.829Z,19.63
2019-05-10T14:49:32.278Z,19.34
2019-05-10T14:54:43.103Z,19.51
2019-05-10T14:59:37.222Z,20.17
2019-05-10T15:04:45.022Z,20.36
2019-05-10T15:09:42.124Z,20.49
2019-05-10T15:14:44.583Z,20.54
2019-05-10T15:19:56.537Z,20.18
2019-05-10T15:24:49.503Z,20.09
2019-05-10T15:29:51.981Z,20.05
2019-05-10T15:35:06.570Z,20.25
2019-05-10T15:40:00.597Z,20.39
2019-05-10T15:45:05.282Z,20.23
2019-05-10T15:50:01.945Z,20.11
2019-05-10T15:55:04.341Z,20.03
2019-05-10T16:00:06.779Z,20.06
2019-05-10T16:05:23.373Z,20.01
2019-05-10T16:10:11.722Z,19.91
2019-05-10T16:15:20.074Z,19.96
2019-05-10T16:20:16.780Z,20.10
2019-05-10T16:25:19.246Z,19.75
2019-05-10T16:30:21.752Z,19.38
2019-05-10T16:35:37.052Z,19.12
2019-05-10T16:40:26.723Z,19.18
2019-05-10T16:45:29.188Z,18.74
2019-05-10T16:50:33.766Z,18.57
2019-05-10T16:55:35.435Z,18.20
2019-05-10T17:00:40.626Z,17.99
2019-05-10T17:05:52.658Z,17.51
2019-05-10T17:10:41.568Z,17.42
2019-05-10T17:15:44.156Z,17.71
2019-05-10T17:20:51.003Z,17.72
2019-05-10T17:25:49.145Z,18.19
2019-05-10T17:30:51.602Z,18.33
2019-05-10T17:36:07.553Z,17.69
2019-05-10T17:40:56.528Z,17.50
2019-05-10T17:45:58.989Z,17.37
2019-05-10T17:51:01.486Z,17.23
2019-05-10T17:56:03.950Z,17.49
2019-05-10T18:01:06.397Z,17.02
2019-05-10T18:06:23.114Z,16.65
2019-05-10T18:11:11.336Z,16.42
2019-05-10T18:16:13.808Z,16.21
2019-05-10T18:21:21.841Z,16.00
2019-05-10T18:26:18.751Z,15.89
2019-05-10T18:31:21.265Z,15.72
2019-05-10T18:36:26.769Z,15.50
2019-05-10T18:41:26.235Z,15.20
2019-05-10T18:46:28.698Z,15.00
2019-05-10T18:51:34.405Z,14.96
2019-05-10T18:56:33.629Z,14.87
2019-05-10T19:01:38.817Z,14.59
2019-05-10T19:06:38.550Z,14.38
2019-05-10T19:11:41.263Z,14.35
2019-05-10T19:16:43.475Z,14.29
2019-05-10T19:21:45.942Z,14.10
2019-05-10T19:26:48.414Z,14.03
2019-05-10T19:31:50.895Z,14.05
2019-05-10T19:36:53.352Z,14.23
2019-05-10T19:42:03.027Z,14.23
2019-05-10T19:46:58.309Z,14.32
2019-05-10T19:52:00.767Z,14.41
2019-05-10T19:57:03.242Z,14.51
2019-05-10T20:02:05.730Z,14.43
2019-05-10T20:07:08.193Z,14.24
2019-05-10T20:12:13.252Z,14.29
2019-05-10T20:17:15.778Z,14.44
2019-05-10T20:22:18.187Z,14.45
2019-05-10T20:27:20.651Z,14.68
2019-05-10T20:32:23.133Z,14.41
2019-05-10T20:37:25.599Z,14.35
2019-05-10T20:42:28.053Z,14.25
2019-05-10T20:47:30.550Z,14.24
2019-05-10T20:52:33.006Z,14.36
2019-05-10T20:57:35.457Z,14.46
2019-05-10T21:02:37.957Z,14.48
2019-05-10T21:07:40.426Z,14.54
2019-05-10T21:12:42.884Z,14.64
2019-05-10T21:17:45.348Z,14.55
2019-05-10T21:22:47.829Z,14.59
2019-05-10T21:27:50.288Z,14.59
2019-05-10T21:32:52.742Z,14.43
2019-05-10T21:37:55.221Z,14.48
2019-05-10T21:42:57.688Z,14.47
2019-05-10T21:48:00.225Z,14.40
2019-05-10T21:53:02.632Z,14.45
2019-05-10T21:58:05.109Z,14.42
2019-05-10T22:03:07.591Z,14.39
2019-05-10T22:08:10.057Z,14.39
2019-05-10T22:13:12.554Z,14.37
2019-05-10T22:18:15.002Z,14.32
2019-05-10T22:23:17.459Z,14.25
2019-05-10T22:28:19.913Z,14.37
2019-05-10T22:33:22.430Z,14.29
2019-05-10T22:38:24.822Z,14.28
2019-05-10T22:43:27.274Z,14.11
2019-05-10T22:48:29.742Z,14.04
2019-05-10T22:53:32.196Z,14.09
2019-05-10T22:58:34.660Z,14.23
2019-05-10T23:03:37.137Z,14.25
2019-05-10T23:08:39.660Z,14.06
2019-05-10T23:13:42.084Z,13.84
2019-05-10T23:18:44.559Z,13.82
2019-05-10T23:23:47.009Z,13.67
2019-05-10T23:28:49.462Z,13.47
2019-05-10T23:33:51.908Z,13.41
2019-05-10T23:38:54.360Z,13.43
2019-05-10T23:43:56.821Z,13.40
2019-05-10T23:48:59.282Z,13.41
2019-05-10T23:54:01.731Z,13.46
2019-05-10T23:59:04.190Z,13.41
